Airfield :
LOGIN :

Register | Disclaimer

   EN    FR    IT 

 










Legend :    VFR   Marginal VFR   IFR   Intensive IFR   Very Intensive IFR
Visi :
Ceiling :
>= 8 km
>= 3000ft
5 to 8 km
1000 to 3000 ft
1500m to 5 km
500 to 1000 ft
800 to 1500m
200 to 500 ft
< 800m
< 200 ft
Symbols :   Thunderstorms  Fog  Heavy snow  Heavy precipitations  Wind > 20 kt
SIGMETs :     Misc.  Thunderstorms  Icing  Turbulence  Mountain Waves  Volcanic Ashes







- Airport Elevation : 302 ft
- IATA code : CGN


EDDK - Cologne Bonn

CURRENT METAR :
  • 210020Z 32009KT 9000 FEW002 OVC004 02/02 Q1004 NOSIG

EXPIRED METARs :
  • 202350Z 31010KT 9000 FEW002 OVC004 02/02 Q1004 NOSIG
  • 202320Z 31010KT 6000 -RADZ FEW002 BKN003 02/02 Q1003 TEMPO 3500
  • 202250Z 31008KT 9999 FEW003 OVC004 02/02 Q1002 NOSIG
  • 202220Z 33003KT 9999 -RA FEW003 OVC005 02/02 Q1002 TEMPO BKN004
  • 202150Z 33003KT 9999 -RA OVC005 02/02 Q1001 TEMPO BKN004

TAF TAF EDDK
Valid from the 21 at 00:00 until the 22 at 06:00 UTC


202300Z 2100/2206 31006KT 9999 BKN006
TEMPO 2100/2105 2500 -RASN BR BKN004
BECMG 2105/2108 SCT015
BECMG 2112/2115 25006KT
BECMG 2115/2118 13008KT
BECMG 2123/2202 BKN012
TEMPO 2200/2206 4500 -RA BKN008
PROB40
TEMPO 2200/2203 2500 -SNRA
No reported NOTAMs for that airfield.
2 SIGMETs reported for the Langen FIR (EDGG) :
 
Severe turbulence
EDGG SIGMET 6 VALID 210000/210300 EDZF
EDGG LANGEN FIR SEV TURB FCST ENTIRE FIR FL160/245 MOV NE 15KT WKN=
Severe turbulence
EDGG SIGMET 5 VALID 202100/210000 EDZF
EDGG LANGEN FIR SEV TURB FCST W OF E01015 FL200/280 MOV NE 15KT NC=



MET'MAP, your aeronautical weather chart ! - Copyright ORBIFLY December 2007 - Disclaimer

ORBIFLY MET'MAP TEAM :

Programming & Development : Alexandra Zaïnal
Concept & Development : Baudouin d'Aumeries
Co-Development & Prog : Marc-Olivier Méhu
Technical & hardware support : Manuel Goepfert

Contact : metmap@orbifly.com




SOURCES & CREDITS :

   NOAA